createdAt,value
2017-06-13T00:00:42.550Z,3.30
2017-06-13T00:03:13.744Z,3.33
2017-06-13T00:05:42.007Z,3.30
2017-06-13T00:08:10.293Z,4.07
2017-06-13T00:10:38.549Z,3.27
2017-06-13T00:13:06.790Z,3.43
2017-06-13T00:15:35.028Z,2.50
2017-06-13T00:18:03.285Z,2.83
2017-06-13T00:20:31.529Z,3.67
2017-06-13T00:23:00.558Z,2.63
2017-06-13T00:25:28.845Z,3.20
2017-06-13T00:27:57.151Z,2.90
2017-06-13T00:30:25.503Z,3.10
2017-06-13T00:32:53.738Z,3.17
2017-06-13T00:35:22.042Z,3.23
2017-06-13T00:37:50.374Z,3.17
2017-06-13T00:40:18.632Z,3.47
2017-06-13T00:42:46.974Z,3.33
2017-06-13T00:45:15.212Z,3.40
2017-06-13T00:47:44.240Z,3.37
2017-06-13T00:50:12.562Z,2.60
2017-06-13T00:52:40.797Z,3.70
2017-06-13T00:55:09.165Z,3.97
2017-06-13T00:57:37.437Z,3.10
2017-06-13T01:00:05.683Z,2.77
2017-06-13T01:02:34.783Z,3.23
2017-06-13T01:05:03.240Z,2.90
2017-06-13T01:07:31.470Z,3.87
2017-06-13T01:09:59.717Z,4.10
2017-06-13T01:12:28.017Z,4.43
2017-06-13T01:14:56.265Z,3.03
2017-06-13T01:17:24.615Z,3.20
2017-06-13T01:19:52.949Z,2.80
2017-06-13T01:22:21.187Z,2.80
2017-06-13T01:24:50.309Z,4.60
2017-06-13T01:27:18.643Z,4.80
2017-06-13T01:29:47.731Z,4.77
2017-06-13T01:32:15.976Z,3.20
2017-06-13T01:34:44.220Z,2.93
2017-06-13T01:37:12.484Z,3.13
2017-06-13T01:39:40.843Z,2.83
2017-06-13T01:42:09.161Z,4.47
2017-06-13T01:44:37.438Z,3.03
2017-06-13T01:47:05.680Z,3.10
2017-06-13T01:49:33.948Z,4.10
2017-06-13T01:52:02.192Z,4.77
2017-06-13T01:54:30.445Z,3.37
2017-06-13T01:56:58.710Z,3.07
2017-06-13T01:59:26.993Z,3.00
2017-06-13T02:01:55.372Z,17.60
2017-06-13T02:04:23.625Z,5.00
2017-06-13T02:06:51.929Z,3.70
2017-06-13T02:09:20.193Z,2.60
2017-06-13T02:11:48.454Z,6.63
2017-06-13T02:14:16.729Z,8.83
2017-06-13T02:16:44.989Z,6.50
2017-06-13T02:19:14.009Z,3.77
2017-06-13T02:21:42.282Z,4.27
2017-06-13T02:24:10.621Z,3.97
2017-06-13T02:26:39.696Z,4.20
2017-06-13T02:29:08.051Z,3.90
2017-06-13T02:31:36.311Z,4.00
2017-06-13T02:34:04.574Z,3.97
2017-06-13T02:36:32.814Z,7.37
2017-06-13T02:39:01.849Z,5.50
2017-06-13T02:41:30.084Z,4.83
2017-06-13T02:43:59.187Z,3.97
2017-06-13T02:46:27.413Z,3.97
2017-06-13T02:48:55.726Z,3.43
2017-06-13T02:51:23.961Z,11.40
2017-06-13T02:53:52.275Z,10.70
2017-06-13T02:56:20.488Z,9.70
2017-06-13T02:58:48.787Z,10.23
2017-06-13T03:01:17.029Z,5.33
2017-06-13T03:03:45.315Z,3.93
2017-06-13T03:06:13.559Z,3.27
2017-06-13T03:08:42.587Z,4.90
2017-06-13T03:11:10.872Z,3.80
2017-06-13T03:13:39.149Z,3.50
2017-06-13T03:16:07.417Z,3.80
2017-06-13T03:18:35.761Z,4.07
2017-06-13T03:21:03.973Z,4.27
2017-06-13T03:23:32.243Z,4.77
2017-06-13T03:26:00.547Z,3.87
2017-06-13T03:28:28.806Z,3.60
2017-06-13T03:30:57.096Z,3.30
2017-06-13T03:33:25.329Z,4.47
2017-06-13T03:35:53.644Z,3.47
2017-06-13T03:38:21.957Z,4.20
2017-06-13T03:40:50.347Z,4.07
2017-06-13T03:43:18.570Z,3.70
2017-06-13T03:45:46.840Z,3.30
2017-06-13T03:48:15.095Z,3.50
2017-06-13T03:50:43.454Z,4.77
2017-06-13T03:53:11.703Z,3.80
2017-06-13T03:55:39.952Z,3.10
2017-06-13T03:58:08.203Z,3.20
2017-06-13T04:00:36.545Z,3.30
2017-06-13T04:03:05.589Z,3.80
2017-06-13T04:05:33.961Z,3.10
2017-06-13T04:08:02.233Z,3.50
2017-06-13T04:10:30.469Z,4.50
2017-06-13T04:12:59.600Z,4.37
2017-06-13T04:15:28.030Z,3.60
2017-06-13T04:17:56.285Z,3.43
2017-06-13T04:20:24.629Z,4.07
2017-06-13T04:22:53.006Z,4.03
2017-06-13T04:25:21.457Z,4.13
2017-06-13T04:27:49.672Z,3.50
2017-06-13T04:30:18.065Z,5.93
2017-06-13T04:32:46.363Z,5.27
2017-06-13T04:35:14.612Z,4.37
2017-06-13T04:37:43.000Z,4.10
2017-06-13T04:40:11.237Z,4.27
2017-06-13T04:42:39.525Z,3.47
2017-06-13T04:45:07.765Z,3.40
2017-06-13T04:47:37.299Z,3.97
2017-06-13T04:50:05.552Z,4.10
2017-06-13T04:52:34.649Z,3.87
2017-06-13T04:55:02.920Z,3.70
2017-06-13T04:57:31.962Z,3.83
2017-06-13T05:00:00.186Z,3.77
2017-06-13T05:02:29.201Z,3.27
2017-06-13T05:04:57.633Z,4.40
2017-06-13T05:07:25.982Z,4.47
2017-06-13T05:09:54.344Z,4.10
2017-06-13T05:12:22.617Z,3.93
2017-06-13T05:14:50.974Z,3.90
2017-06-13T05:17:19.419Z,4.47
2017-06-13T05:19:47.628Z,3.53
2017-06-13T05:22:15.928Z,3.40
2017-06-13T05:24:44.173Z,3.93
2017-06-13T05:27:12.513Z,3.43
2017-06-13T05:29:40.776Z,3.40
2017-06-13T05:32:09.050Z,4.10
2017-06-13T05:34:37.305Z,3.80
2017-06-13T05:37:05.557Z,4.00
2017-06-13T05:39:33.802Z,3.60
2017-06-13T05:42:02.083Z,3.10
2017-06-13T05:44:31.088Z,2.90
2017-06-13T05:47:00.081Z,4.50
2017-06-13T05:49:29.093Z,4.37
2017-06-13T05:51:57.383Z,3.53
2017-06-13T05:54:25.671Z,3.80
2017-06-13T05:56:53.898Z,4.00
2017-06-13T05:59:22.907Z,3.47
2017-06-13T06:01:51.913Z,4.60
2017-06-13T06:04:20.160Z,3.77
2017-06-13T06:06:49.305Z,5.50
2017-06-13T06:09:18.418Z,5.50
2017-06-13T06:11:46.657Z,5.00
2017-06-13T06:14:14.915Z,4.30
2017-06-13T06:16:43.157Z,3.30
2017-06-13T06:19:11.492Z,2.90
2017-06-13T06:21:39.893Z,3.03
2017-06-13T06:24:08.137Z,3.23
2017-06-13T06:26:36.368Z,3.43
2017-06-13T06:29:05.397Z,3.20
2017-06-13T06:31:33.639Z,4.10
2017-06-13T06:34:01.889Z,3.83
2017-06-13T06:36:30.118Z,4.10
2017-06-13T06:38:58.377Z,3.10
2017-06-13T06:41:27.425Z,3.10
2017-06-13T06:43:55.786Z,3.17
2017-06-13T06:46:24.023Z,3.50
2017-06-13T06:48:53.108Z,4.00
2017-06-13T06:51:22.178Z,3.63
2017-06-13T06:53:50.475Z,4.17
2017-06-13T06:56:18.682Z,4.00
2017-06-13T06:58:47.025Z,4.63
2017-06-13T07:01:15.241Z,3.90
2017-06-13T07:03:43.543Z,5.30
2017-06-13T07:06:11.784Z,5.00
2017-06-13T07:08:40.035Z,6.03
2017-06-13T07:11:09.125Z,5.30
2017-06-13T07:13:37.445Z,6.30
2017-06-13T07:16:05.749Z,5.50
2017-06-13T07:18:34.015Z,5.67
2017-06-13T07:21:02.326Z,5.40
2017-06-13T07:23:30.648Z,6.03
2017-06-13T07:25:58.880Z,6.23
2017-06-13T07:28:27.898Z,5.67
2017-06-13T07:30:56.196Z,6.07
2017-06-13T07:33:24.464Z,5.87
2017-06-13T07:35:52.748Z,6.10
2017-06-13T07:38:21.082Z,4.60
2017-06-13T07:40:50.213Z,4.90
2017-06-13T07:43:18.537Z,6.17
2017-06-13T07:45:46.784Z,5.00
2017-06-13T07:48:15.054Z,5.33
2017-06-13T07:50:43.456Z,4.20
2017-06-13T07:53:12.241Z,4.40
2017-06-13T07:55:40.496Z,3.97
2017-06-13T07:58:08.760Z,5.40
2017-06-13T08:00:37.070Z,4.67
2017-06-13T08:03:05.413Z,4.13
2017-06-13T08:05:33.749Z,4.40
2017-06-13T08:08:02.069Z,4.23
2017-06-13T08:10:30.381Z,4.00
2017-06-13T08:12:58.614Z,4.20
2017-06-13T08:15:26.865Z,3.93
2017-06-13T08:17:55.101Z,4.67
2017-06-13T08:20:23.488Z,3.80
2017-06-13T08:22:51.711Z,3.97
2017-06-13T08:25:19.966Z,3.87
2017-06-13T08:27:48.279Z,5.10
2017-06-13T08:30:16.579Z,3.67
2017-06-13T08:32:44.814Z,3.70
2017-06-13T08:35:13.109Z,4.47
2017-06-13T08:37:41.384Z,4.10
2017-06-13T08:40:09.703Z,4.80
2017-06-13T08:42:37.948Z,4.07
2017-06-13T08:45:06.302Z,4.10
2017-06-13T08:47:34.551Z,4.67
2017-06-13T08:50:02.805Z,4.70
2017-06-13T08:52:31.809Z,3.43
2017-06-13T08:55:00.938Z,4.33
2017-06-13T08:57:29.170Z,4.27
2017-06-13T08:59:58.995Z,3.40
2017-06-13T09:02:27.329Z,3.90
2017-06-13T09:04:55.681Z,3.90
2017-06-13T09:07:24.007Z,3.83
2017-06-13T09:09:52.254Z,4.10
2017-06-13T09:12:20.605Z,3.83
2017-06-13T09:14:48.853Z,3.63
2017-06-13T09:17:17.977Z,3.97
2017-06-13T09:19:46.217Z,3.97
2017-06-13T09:22:14.456Z,3.17
2017-06-13T09:24:42.694Z,3.97
2017-06-13T09:27:10.949Z,3.77
2017-06-13T09:29:39.178Z,3.13
2017-06-13T09:32:07.428Z,3.57
2017-06-13T09:34:35.669Z,3.30
2017-06-13T09:37:04.801Z,3.17
2017-06-13T09:39:33.036Z,3.20
2017-06-13T09:42:02.061Z,3.80
2017-06-13T09:44:30.296Z,3.43
2017-06-13T09:46:59.437Z,2.90
2017-06-13T09:49:28.491Z,4.00
2017-06-13T09:51:57.761Z,3.17
2017-06-13T09:54:27.480Z,3.43
2017-06-13T09:56:57.087Z,5.57
2017-06-13T09:59:25.879Z,5.97
2017-06-13T10:01:54.764Z,4.57
2017-06-13T10:04:24.474Z,4.10
2017-06-13T10:06:53.218Z,3.63
2017-06-13T10:09:22.048Z,4.10
2017-06-13T10:11:51.249Z,3.80
2017-06-13T10:14:19.748Z,3.50
2017-06-13T10:16:48.926Z,4.97
2017-06-13T10:19:17.291Z,3.70
2017-06-13T10:21:45.633Z,4.17
2017-06-13T10:24:13.888Z,3.67
2017-06-13T10:26:42.142Z,3.47
2017-06-13T10:29:11.141Z,3.50
2017-06-13T10:31:40.216Z,3.43
2017-06-13T10:34:08.455Z,3.27
2017-06-13T10:36:36.743Z,3.37
2017-06-13T10:39:04.981Z,3.30
2017-06-13T10:41:33.236Z,3.73
2017-06-13T10:44:02.240Z,2.87
2017-06-13T10:46:30.891Z,3.40
2017-06-13T10:48:59.133Z,3.27
2017-06-13T10:51:27.390Z,3.10
2017-06-13T10:53:55.685Z,3.13
2017-06-13T10:56:23.960Z,3.90
2017-06-13T10:58:52.277Z,3.30
2017-06-13T11:01:21.290Z,3.50
2017-06-13T11:03:50.551Z,3.17
2017-06-13T11:06:18.788Z,3.40
2017-06-13T11:08:47.046Z,3.60
2017-06-13T11:11:15.297Z,3.63
2017-06-13T11:13:44.378Z,3.70
2017-06-13T11:16:12.616Z,3.90
2017-06-13T11:18:40.928Z,3.37
2017-06-13T11:21:09.247Z,3.43
2017-06-13T11:23:37.516Z,4.00
2017-06-13T11:26:05.750Z,3.33
2017-06-13T11:28:34.082Z,3.30
2017-06-13T11:31:02.313Z,3.37
2017-06-13T11:33:31.473Z,3.20
2017-06-13T11:35:59.732Z,3.40
2017-06-13T11:38:28.057Z,3.83
2017-06-13T11:40:56.338Z,3.20
2017-06-13T11:43:24.721Z,3.53
2017-06-13T11:45:53.089Z,3.00
2017-06-13T11:48:21.428Z,3.37
2017-06-13T11:50:49.660Z,3.70
2017-06-13T11:53:18.678Z,3.50
2017-06-13T11:55:47.030Z,3.47
2017-06-13T11:58:15.272Z,3.70
2017-06-13T12:00:43.634Z,4.20
2017-06-13T12:03:11.883Z,3.70
2017-06-13T12:05:40.121Z,4.03
2017-06-13T12:08:08.448Z,3.60
2017-06-13T12:10:36.745Z,3.23
2017-06-13T12:13:04.993Z,3.67
2017-06-13T12:15:33.276Z,4.03
2017-06-13T12:18:01.614Z,4.20
2017-06-13T12:20:30.660Z,3.90
2017-06-13T12:22:58.937Z,3.23
2017-06-13T12:25:27.235Z,4.20
2017-06-13T12:27:56.794Z,4.40
2017-06-13T12:30:25.245Z,3.77
2017-06-13T12:32:54.337Z,4.07
2017-06-13T12:35:23.010Z,4.10
2017-06-13T12:37:52.676Z,4.10
2017-06-13T12:40:21.881Z,4.00
2017-06-13T12:42:51.312Z,3.93
2017-06-13T12:45:19.751Z,4.10
2017-06-13T12:47:48.052Z,4.07
2017-06-13T12:50:16.392Z,4.50
2017-06-13T12:52:44.638Z,5.27
2017-06-13T12:55:13.646Z,3.97
2017-06-13T12:57:41.910Z,4.13
2017-06-13T13:00:10.924Z,4.30
2017-06-13T13:02:39.218Z,4.53
2017-06-13T13:05:07.477Z,3.77
2017-06-13T13:07:35.872Z,4.60
2017-06-13T13:10:04.108Z,3.97
2017-06-13T13:12:33.141Z,4.90
2017-06-13T13:15:02.381Z,3.97
2017-06-13T13:17:30.960Z,3.80
2017-06-13T13:19:59.455Z,3.73
2017-06-13T13:22:28.546Z,4.40
2017-06-13T13:24:58.003Z,4.93
2017-06-13T13:27:26.230Z,5.30
2017-06-13T13:29:55.362Z,4.00
2017-06-13T13:32:23.644Z,4.17
2017-06-13T13:34:51.961Z,4.57
2017-06-13T13:37:20.189Z,5.03
2017-06-13T13:39:48.451Z,4.57
2017-06-13T13:42:16.805Z,4.67
2017-06-13T13:44:46.037Z,4.43
2017-06-13T13:47:14.365Z,5.20
2017-06-13T13:49:42.604Z,4.53
2017-06-13T13:52:10.882Z,4.77
2017-06-13T13:54:39.137Z,4.70
2017-06-13T13:57:07.408Z,4.40
2017-06-13T13:59:35.665Z,4.10
2017-06-13T14:02:03.917Z,4.70
2017-06-13T14:04:32.298Z,4.33
2017-06-13T14:07:00.579Z,4.00
2017-06-13T14:09:29.749Z,4.37
2017-06-13T14:11:57.981Z,4.20
2017-06-13T14:14:26.248Z,4.70
2017-06-13T14:16:54.562Z,4.00
2017-06-13T14:19:22.935Z,3.83
2017-06-13T14:21:51.213Z,3.40
2017-06-13T14:24:19.553Z,3.77
2017-06-13T14:26:47.877Z,3.70
2017-06-13T14:29:16.116Z,3.83
2017-06-13T14:31:44.357Z,4.20
2017-06-13T14:34:13.389Z,3.90
2017-06-13T14:36:41.655Z,4.23
2017-06-13T14:39:09.904Z,4.17
2017-06-13T14:41:38.930Z,3.70
2017-06-13T14:44:07.219Z,3.00
2017-06-13T14:46:35.498Z,3.40
2017-06-13T14:49:03.825Z,3.20
2017-06-13T14:51:32.865Z,3.40
2017-06-13T14:54:01.235Z,4.03
2017-06-13T14:56:29.740Z,3.87
2017-06-13T14:58:58.002Z,3.30
2017-06-13T15:01:26.277Z,4.00
2017-06-13T15:03:54.519Z,3.93
2017-06-13T15:06:23.645Z,5.10
2017-06-13T15:08:51.882Z,4.23
2017-06-13T15:11:21.005Z,3.30
2017-06-13T15:13:49.289Z,3.93
2017-06-13T15:16:17.568Z,3.27
2017-06-13T15:18:45.823Z,3.80
2017-06-13T15:21:14.077Z,3.47
2017-06-13T15:23:42.389Z,3.70
2017-06-13T15:26:10.661Z,3.30
2017-06-13T15:28:38.897Z,3.23
2017-06-13T15:31:07.313Z,3.70
2017-06-13T15:33:35.663Z,3.90
2017-06-13T15:36:03.907Z,4.17
2017-06-13T15:38:32.159Z,4.17
2017-06-13T15:41:00.395Z,4.10
2017-06-13T15:43:28.651Z,5.27
2017-06-13T15:45:57.662Z,5.13
2017-06-13T15:48:25.957Z,5.00
2017-06-13T15:50:54.256Z,4.57
2017-06-13T15:53:22.564Z,5.30
2017-06-13T15:55:50.893Z,4.40
2017-06-13T15:58:19.151Z,4.70
2017-06-13T16:00:47.429Z,5.40
2017-06-13T16:03:15.674Z,5.97
2017-06-13T16:05:45.066Z,5.83
2017-06-13T16:08:13.305Z,6.10
2017-06-13T16:10:41.608Z,4.73
2017-06-13T16:13:09.869Z,5.07
2017-06-13T16:15:38.150Z,5.77
2017-06-13T16:18:06.399Z,5.80
2017-06-13T16:20:34.659Z,5.80
2017-06-13T16:23:02.913Z,6.10
2017-06-13T16:25:31.267Z,6.50
2017-06-13T16:27:59.627Z,5.83
2017-06-13T16:30:27.897Z,6.00
2017-06-13T16:32:56.149Z,5.73
2017-06-13T16:35:24.479Z,5.63
2017-06-13T16:37:52.810Z,4.30
2017-06-13T16:40:21.057Z,5.73
2017-06-13T16:42:49.445Z,5.17
2017-06-13T16:45:17.764Z,5.30
2017-06-13T16:47:46.022Z,6.33
2017-06-13T16:50:14.451Z,5.87
2017-06-13T16:52:42.699Z,6.50
2017-06-13T16:55:10.953Z,6.23
2017-06-13T16:57:39.201Z,6.20
2017-06-13T17:00:07.538Z,6.70
2017-06-13T17:02:35.774Z,6.27
2017-06-13T17:05:04.025Z,5.57
2017-06-13T17:07:32.286Z,5.80
2017-06-13T17:10:01.414Z,6.60
2017-06-13T17:12:29.745Z,5.43
2017-06-13T17:14:58.112Z,6.67
2017-06-13T17:17:26.553Z,6.23
2017-06-13T17:19:54.789Z,6.07
2017-06-13T17:22:23.817Z,6.50
2017-06-13T17:24:52.067Z,7.10
2017-06-13T17:27:20.330Z,7.23
2017-06-13T17:29:48.597Z,6.20
2017-06-13T17:32:17.617Z,6.50
2017-06-13T17:34:45.865Z,6.20
2017-06-13T17:37:14.869Z,5.47
2017-06-13T17:39:43.133Z,6.00
2017-06-13T17:42:12.142Z,5.23
2017-06-13T17:44:40.463Z,4.43
2017-06-13T17:47:08.706Z,4.40
2017-06-13T17:49:36.938Z,4.80
2017-06-13T17:52:05.222Z,5.13
2017-06-13T17:54:34.226Z,4.93
2017-06-13T17:57:03.236Z,5.13
2017-06-13T17:59:31.536Z,5.00
2017-06-13T18:01:59.771Z,5.43
2017-06-13T18:04:28.045Z,5.57
2017-06-13T18:06:56.399Z,5.03
2017-06-13T18:09:24.646Z,5.03
2017-06-13T18:11:53.036Z,4.93
2017-06-13T18:14:21.271Z,4.70
2017-06-13T18:16:49.613Z,5.40
2017-06-13T18:19:17.848Z,4.97
2017-06-13T18:21:46.175Z,5.30
2017-06-13T18:24:14.416Z,5.00
2017-06-13T18:26:42.649Z,4.67
2017-06-13T18:29:10.900Z,5.50
2017-06-13T18:31:39.159Z,4.60
2017-06-13T18:34:07.404Z,5.40
2017-06-13T18:36:35.721Z,6.10
2017-06-13T18:39:03.976Z,6.60
2017-06-13T18:41:32.248Z,5.73
2017-06-13T18:44:00.512Z,6.57
2017-06-13T18:46:28.773Z,5.67
2017-06-13T18:48:57.046Z,5.60
2017-06-13T18:51:25.375Z,5.77
2017-06-13T18:53:53.634Z,5.93
2017-06-13T18:56:21.870Z,5.77
2017-06-13T18:58:50.113Z,6.00
2017-06-13T19:01:19.170Z,5.67
2017-06-13T19:03:47.518Z,5.50
2017-06-13T19:06:15.848Z,5.13
2017-06-13T19:08:44.880Z,5.53
2017-06-13T19:11:14.231Z,5.30
2017-06-13T19:13:43.338Z,5.50
2017-06-13T19:16:12.366Z,5.87
2017-06-13T19:18:40.730Z,5.13
2017-06-13T19:21:09.086Z,5.00
2017-06-13T19:23:37.331Z,4.60
2017-06-13T19:26:05.573Z,4.63
2017-06-13T19:28:33.810Z,4.30
2017-06-13T19:31:02.950Z,4.73
2017-06-13T19:33:31.257Z,5.00
2017-06-13T19:35:59.655Z,4.50
2017-06-13T19:38:27.913Z,4.93
2017-06-13T19:40:56.153Z,5.40
2017-06-13T19:43:24.538Z,6.07
2017-06-13T19:45:52.806Z,5.33
2017-06-13T19:48:21.045Z,5.40
2017-06-13T19:50:50.097Z,4.80
2017-06-13T19:53:18.440Z,4.70
2017-06-13T19:55:46.681Z,5.50
2017-06-13T19:58:14.915Z,4.60
2017-06-13T20:00:43.172Z,5.30
2017-06-13T20:03:11.507Z,5.63
2017-06-13T20:05:39.740Z,4.73
2017-06-13T20:08:08.030Z,5.03
2017-06-13T20:10:36.296Z,5.13
2017-06-13T20:13:04.537Z,4.50
2017-06-13T20:15:32.814Z,4.87
2017-06-13T20:18:01.233Z,4.83
2017-06-13T20:20:29.530Z,4.80
2017-06-13T20:23:03.511Z,4.87
2017-06-13T20:25:31.754Z,5.20
2017-06-13T20:28:14.922Z,5.13
2017-06-13T20:30:43.157Z,5.87
2017-06-13T20:33:11.412Z,4.60
2017-06-13T20:35:40.446Z,4.87
2017-06-13T20:38:08.703Z,5.13
2017-06-13T20:40:36.985Z,5.47
2017-06-13T20:43:05.375Z,5.00
2017-06-13T20:45:33.692Z,4.70
2017-06-13T20:48:02.760Z,4.83
2017-06-13T20:50:31.305Z,5.27
2017-06-13T20:52:59.538Z,6.10
2017-06-13T20:55:27.939Z,6.00
2017-06-13T20:57:56.357Z,6.70
2017-06-13T21:00:24.593Z,5.70
2017-06-13T21:02:53.591Z,6.43
2017-06-13T21:05:21.886Z,6.60
2017-06-13T21:07:50.358Z,6.37
2017-06-13T21:10:18.664Z,5.90
2017-06-13T21:12:47.261Z,6.20
2017-06-13T21:15:15.480Z,6.17
2017-06-13T21:17:43.816Z,6.40
2017-06-13T21:20:12.089Z,6.00
2017-06-13T21:22:40.321Z,6.37
2017-06-13T21:25:08.726Z,6.30
2017-06-13T21:27:36.993Z,6.40
2017-06-13T21:30:05.246Z,7.20
2017-06-13T21:32:33.482Z,6.63
2017-06-13T21:35:01.797Z,6.20
2017-06-13T21:37:30.139Z,6.47
2017-06-13T21:39:58.353Z,6.73
2017-06-13T21:42:26.695Z,6.60
2017-06-13T21:44:55.012Z,6.47
2017-06-13T21:47:23.257Z,6.73
2017-06-13T21:49:52.294Z,7.00
2017-06-13T21:52:20.541Z,6.80
2017-06-13T21:54:48.785Z,7.20
2017-06-13T21:57:17.065Z,6.53
2017-06-13T21:59:45.302Z,6.40
2017-06-13T22:02:13.608Z,6.57
2017-06-13T22:04:41.843Z,6.80
2017-06-13T22:07:10.119Z,6.90
2017-06-13T22:09:38.384Z,7.20
2017-06-13T22:12:06.769Z,6.40
2017-06-13T22:14:35.026Z,7.33
2017-06-13T22:17:03.247Z,6.77
2017-06-13T22:19:31.600Z,7.47
2017-06-13T22:21:59.841Z,6.50
2017-06-13T22:24:28.842Z,6.90
2017-06-13T22:26:57.168Z,7.10
2017-06-13T22:29:25.520Z,6.57
2017-06-13T22:31:53.791Z,6.93
2017-06-13T22:34:22.168Z,7.53
2017-06-13T22:36:50.409Z,7.20
2017-06-13T22:39:19.498Z,6.77
2017-06-13T22:41:47.765Z,6.63
2017-06-13T22:44:16.105Z,6.67
2017-06-13T22:46:44.356Z,6.60
2017-06-13T22:49:12.645Z,7.73
2017-06-13T22:51:40.964Z,7.13
2017-06-13T22:54:09.340Z,7.67
2017-06-13T22:56:38.381Z,8.03
2017-06-13T22:59:06.673Z,7.50
2017-06-13T23:01:34.901Z,7.37
2017-06-13T23:04:03.997Z,7.07
2017-06-13T23:06:33.001Z,7.80
2017-06-13T23:09:01.353Z,8.17
2017-06-13T23:11:29.749Z,8.13
2017-06-13T23:13:58.754Z,7.63
2017-06-13T23:16:27.129Z,8.20
2017-06-13T23:18:55.403Z,7.77
2017-06-13T23:21:23.868Z,8.17
2017-06-13T23:23:52.085Z,8.70
2017-06-13T23:26:20.464Z,7.77
2017-06-13T23:28:48.709Z,8.50
2017-06-13T23:31:16.954Z,8.30
2017-06-13T23:33:45.242Z,8.10
2017-06-13T23:36:13.480Z,7.93
2017-06-13T23:38:41.717Z,8.33
2017-06-13T23:41:10.074Z,8.20
2017-06-13T23:43:39.134Z,8.00
2017-06-13T23:46:07.407Z,8.77
2017-06-13T23:48:35.673Z,8.20
2017-06-13T23:51:03.956Z,7.30
2017-06-13T23:53:32.232Z,7.73
2017-06-13T23:56:00.510Z,8.27
2017-06-13T23:58:28.761Z,8.10
